Time;durP1;ratioP1;P1;durP2;ratioP2;P2;SDS_P1;SDS_P2;PMS_P1;PMS_P2;Temp;Humidity;BMP_temperature;BMP_pressure;BME280_temperature;BME280_humidity;BME280_pressure;Samples;Min_cycle;Max_cycle;Signal;HPM_P1;HPM_P2
2022/05/28 00:01:09;;;;;;;5.33;1.27;;;14.60;87.70;;;;;;5070551;28;20450;-69
2022/05/28 00:03:36;;;;;;;3.97;1.70;;;14.60;87.40;;;;;;5074420;28;20457;-68
2022/05/28 00:06:02;;;;;;;4.03;1.27;;;14.50;87.10;;;;;;5070720;28;20527;-69
2022/05/28 00:08:28;;;;;;;2.53;1.17;;;14.50;87.70;;;;;;5056324;28;20511;-68
2022/05/28 00:10:57;;;;;;;9.47;3.33;;;14.50;87.00;;;;;;5061638;28;20226;-69
2022/05/28 00:13:23;;;;;;;4.30;1.50;;;14.40;86.80;;;;;;5078048;28;20975;-68
2022/05/28 00:15:50;;;;;;;4.30;1.87;;;14.40;86.70;;;;;;5068173;28;20450;-69
2022/05/28 00:18:16;;;;;;;1.50;1.03;;;14.30;86.80;;;;;;5060993;28;20476;-70
2022/05/28 00:20:42;;;;;;;2.60;1.37;;;14.30;86.90;;;;;;5068121;28;20457;-68
2022/05/28 00:23:08;;;;;;;4.70;1.20;;;14.20;87.20;;;;;;5068770;28;20227;-68
2022/05/28 00:25:34;;;;;;;3.40;1.57;;;14.20;87.30;;;;;;5070572;28;20500;-69
2022/05/28 00:27:59;;;;;;;0.83;0.70;;;14.30;87.20;;;;;;5074286;28;20534;-68
2022/05/28 00:30:25;;;;;;;2.40;1.33;;;14.30;87.40;;;;;;5068066;28;20240;-67
2022/05/28 00:32:51;;;;;;;2.40;1.00;;;14.30;87.50;;;;;;5069606;28;20218;-68
2022/05/28 00:35:18;;;;;;;7.53;1.60;;;14.30;87.70;;;;;;5076397;28;20210;-69
2022/05/28 00:37:46;;;;;;;2.20;1.13;;;14.30;87.40;;;;;;5072130;28;20225;-69
2022/05/28 00:40:22;;;;;;;2.30;1.37;;;14.30;87.20;;;;;;5073664;28;20449;-68
2022/05/28 00:42:48;;;;;;;1.53;1.03;;;14.30;87.10;;;;;;5066259;28;20439;-70
2022/05/28 00:45:14;;;;;;;3.13;1.00;;;14.20;87.30;;;;;;5076657;28;20440;-68
2022/05/28 00:47:50;;;;;;;5.50;1.30;;;14.20;87.50;;;;;;5074456;28;20522;-69
2022/05/28 00:50:18;;;;;;;3.40;1.07;;;14.20;87.40;;;;;;5077198;28;20244;-69
2022/05/28 00:52:45;;;;;;;1.40;0.87;;;14.10;87.60;;;;;;5064566;28;20980;-68
2022/05/28 00:55:12;;;;;;;2.83;1.60;;;14.20;88.00;;;;;;5071946;28;20457;-67
2022/05/28 00:57:40;;;;;;;3.77;1.33;;;14.20;87.30;;;;;;5071990;28;20469;-68
2022/05/28 01:00:12;;;;;;;5.33;1.40;;;14.10;87.20;;;;;;5068790;28;20437;-67
2022/05/28 01:02:42;;;;;;;1.47;0.93;;;14.10;87.70;;;;;;5058020;28;20493;-69
2022/05/28 01:05:26;;;;;;;3.27;0.90;;;14.00;87.50;;;;;;5053177;28;20438;-68
2022/05/28 01:08:04;;;;;;;2.87;1.47;;;14.10;87.60;;;;;;5074374;28;20465;-69
2022/05/28 01:10:52;;;;;;;2.80;1.20;;;14.00;87.30;;;;;;5052917;28;20458;-68
2022/05/28 01:13:36;;;;;;;3.57;1.50;;;14.00;87.30;;;;;;5071559;28;20449;-70
2022/05/28 01:16:15;;;;;;;5.30;1.13;;;13.90;87.40;;;;;;5070911;28;20442;-69
2022/05/28 01:19:05;;;;;;;3.17;1.10;;;13.70;87.30;;;;;;5067588;28;20468;-68
2022/05/28 01:21:55;;;;;;;1.60;1.03;;;13.70;87.50;;;;;;5066301;28;20446;-68
2022/05/28 01:24:44;;;;;;;6.07;1.57;;;13.70;87.80;;;;;;5055172;28;20953;-68
2022/05/28 01:27:14;;;;;;;3.20;1.80;;;13.70;87.80;;;;;;5081863;28;20453;-66
2022/05/28 01:29:56;;;;;;;2.50;1.10;;;13.80;88.30;;;;;;5069003;28;20458;-69
2022/05/28 01:32:25;;;;;;;1.67;1.00;;;13.80;88.00;;;;;;5067115;28;20461;-69
2022/05/28 01:34:53;;;;;;;4.47;1.37;;;13.90;88.00;;;;;;5051781;28;20534;-68
2022/05/28 01:37:21;;;;;;;4.07;1.60;;;13.90;87.50;;;;;;5071420;28;20465;-71
2022/05/28 01:39:49;;;;;;;4.07;1.03;;;13.70;86.70;;;;;;5070640;28;20812;-69
2022/05/28 01:42:16;;;;;;;3.97;1.43;;;13.50;87.00;;;;;;5069644;28;20457;-68
2022/05/28 01:44:45;;;;;;;4.97;1.20;;;13.50;87.40;;;;;;5066593;28;20452;-68
2022/05/28 01:47:16;;;;;;;3.13;1.20;;;13.50;87.60;;;;;;5073043;28;20436;-71
2022/05/28 01:49:43;;;;;;;2.67;1.60;;;13.50;87.30;;;;;;5075260;28;20458;-68
2022/05/28 01:52:11;;;;;;;1.53;1.40;;;13.40;87.60;;;;;;5070760;28;20457;-67
2022/05/28 01:54:43;;;;;;;0.77;0.77;;;13.40;87.80;;;;;;5057567;28;21022;-68
2022/05/28 01:57:11;;;;;;;3.10;1.07;;;13.40;87.90;;;;;;5086015;28;20481;-66
2022/05/28 01:59:37;;;;;;;4.60;1.30;;;13.40;88.00;;;;;;5074537;28;20494;-68
2022/05/28 02:02:07;;;;;;;3.80;1.20;;;13.50;87.90;;;;;;5081022;28;20534;-67
2022/05/28 02:04:36;;;;;;;1.40;1.10;;;13.40;87.40;;;;;;5066958;28;20219;-68
2022/05/28 02:07:04;;;;;;;2.10;1.13;;;13.30;87.40;;;;;;5051846;28;20450;-69
2022/05/28 02:09:39;;;;;;;1.23;1.13;;;13.20;87.40;;;;;;5070211;28;20536;-69
2022/05/28 02:12:45;;;;;;;7.20;1.03;;;13.10;87.50;;;;;;5070696;28;20445;-68
2022/05/28 02:15:38;;;;;;;2.73;1.03;;;13.00;87.80;;;;;;5035989;28;20442;-68
2022/05/28 02:18:42;;;;;;;2.03;1.10;;;13.00;88.10;;;;;;5065362;28;20465;-68
2022/05/28 02:21:43;;;;;;;4.60;1.37;;;13.00;87.60;;;;;;5065177;28;20569;-69
2022/05/28 02:24:21;;;;;;;1.07;0.90;;;13.00;88.00;;;;;;5074768;28;20907;-67
2022/05/28 02:26:48;;;;;;;1.77;1.00;;;13.00;88.10;;;;;;5078298;28;20788;-69
2022/05/28 02:29:15;;;;;;;1.93;1.10;;;12.90;87.90;;;;;;5072845;28;20803;-67
2022/05/28 02:31:45;;;;;;;7.07;1.40;;;13.00;88.20;;;;;;5076721;28;20454;-69
2022/05/28 02:34:11;;;;;;;0.77;0.70;;;12.90;87.50;;;;;;5071390;28;20988;-68
2022/05/28 02:36:38;;;;;;;1.13;0.87;;;12.80;88.00;;;;;;5068938;28;20487;-68
2022/05/28 02:39:04;;;;;;;1.80;1.23;;;12.70;88.20;;;;;;5076631;28;20472;-68
2022/05/28 02:41:30;;;;;;;3.63;1.13;;;12.80;88.10;;;;;;5068556;28;20462;-68
2022/05/28 02:43:55;;;;;;;1.43;1.10;;;12.70;88.00;;;;;;5069513;28;20229;-68
2022/05/28 02:46:21;;;;;;;0.80;0.57;;;12.70;88.10;;;;;;5072213;28;20219;-69
2022/05/28 02:48:47;;;;;;;3.07;1.30;;;12.70;88.80;;;;;;5076629;28;20215;-67
2022/05/28 02:51:21;;;;;;;5.80;1.20;;;12.80;88.20;;;;;;5069109;28;20214;-69
2022/05/28 02:53:49;;;;;;;1.60;0.90;;;12.80;88.10;;;;;;5052391;28;20226;-68
2022/05/28 02:56:15;;;;;;;1.60;1.00;;;12.80;88.10;;;;;;5071219;28;20497;-68
2022/05/28 02:58:41;;;;;;;3.03;1.10;;;12.70;88.00;;;;;;5064678;28;20550;-67
2022/05/28 03:01:19;;;;;;;6.13;1.23;;;12.70;88.20;;;;;;5066707;28;20454;-68
2022/05/28 03:03:45;;;;;;;3.00;1.50;;;12.70;88.10;;;;;;5070300;28;20219;-69
2022/05/28 03:06:11;;;;;;;2.90;1.47;;;12.70;88.10;;;;;;5061273;28;20534;-67
2022/05/28 03:08:36;;;;;;;2.37;1.27;;;12.70;88.00;;;;;;5073526;28;20512;-68
2022/05/28 03:11:02;;;;;;;2.07;1.10;;;12.70;87.80;;;;;;5069153;28;20599;-67
2022/05/28 03:13:28;;;;;;;2.60;1.03;;;12.50;87.80;;;;;;5070177;28;20587;-70
2022/05/28 03:15:53;;;;;;;2.63;1.40;;;12.30;88.30;;;;;;5063016;28;20218;-68
2022/05/28 03:18:19;;;;;;;1.20;1.10;;;12.30;88.50;;;;;;5064187;28;20223;-68
2022/05/28 03:20:45;;;;;;;1.63;1.03;;;12.20;88.40;;;;;;5069219;28;20306;-69
2022/05/28 03:23:10;;;;;;;3.47;1.20;;;12.20;89.00;;;;;;5068052;28;20237;-69
2022/05/28 03:25:36;;;;;;;2.60;1.70;;;12.20;88.80;;;;;;5072358;28;20245;-69
2022/05/28 03:28:02;;;;;;;5.37;1.57;;;12.30;88.90;;;;;;5072574;28;20223;-69
2022/05/28 03:30:27;;;;;;;2.80;1.37;;;12.20;88.90;;;;;;5061615;28;20557;-68
2022/05/28 03:32:53;;;;;;;2.20;1.33;;;12.30;89.00;;;;;;5061798;28;20220;-69
2022/05/28 03:35:19;;;;;;;4.10;1.60;;;12.30;89.10;;;;;;5060767;28;20242;-68
2022/05/28 03:37:44;;;;;;;1.37;0.93;;;12.20;88.90;;;;;;5069087;28;20223;-69
2022/05/28 03:40:11;;;;;;;1.57;1.00;;;12.20;88.90;;;;;;5068840;28;20238;-68
2022/05/28 03:42:36;;;;;;;4.67;1.60;;;12.20;89.10;;;;;;5068597;28;20246;-69
2022/05/28 03:45:02;;;;;;;1.37;1.13;;;12.20;89.00;;;;;;5076959;28;20461;-69
2022/05/28 03:47:30;;;;;;;3.43;1.53;;;12.20;89.10;;;;;;5068735;28;20344;-68
2022/05/28 03:49:57;;;;;;;2.67;1.67;;;12.10;89.10;;;;;;5056559;28;20447;-68
2022/05/28 03:52:22;;;;;;;2.73;1.17;;;12.00;89.40;;;;;;5076919;28;20818;-68
2022/05/28 03:54:48;;;;;;;1.83;1.40;;;12.00;90.00;;;;;;5075795;28;20438;-67
2022/05/28 03:57:24;;;;;;;3.73;1.40;;;11.90;90.20;;;;;;5074281;28;20279;-68
2022/05/28 03:59:50;;;;;;;2.03;1.13;;;12.00;90.20;;;;;;5067110;28;20230;-68
2022/05/28 04:02:16;;;;;;;3.40;1.03;;;11.90;90.40;;;;;;5068057;28;20485;-68
2022/05/28 04:04:42;;;;;;;7.23;1.60;;;12.00;90.20;;;;;;5074746;28;20426;-68
2022/05/28 04:07:10;;;;;;;3.47;1.70;;;11.90;90.40;;;;;;5072211;28;20211;-68
2022/05/28 04:09:36;;;;;;;3.70;1.30;;;11.90;90.40;;;;;;5068205;28;20215;-69
2022/05/28 04:12:02;;;;;;;5.23;1.63;;;11.90;90.50;;;;;;5072462;28;20448;-68
2022/05/28 04:14:27;;;;;;;2.20;1.70;;;11.80;90.60;;;;;;5073156;28;20219;-68
2022/05/28 04:16:53;;;;;;;1.97;1.30;;;11.90;90.70;;;;;;5073117;28;20210;-68
2022/05/28 04:19:19;;;;;;;5.33;1.33;;;11.90;90.70;;;;;;5073935;28;20752;-67
2022/05/28 04:21:46;;;;;;;9.50;1.57;;;11.80;90.80;;;;;;5083477;28;20310;-69
2022/05/28 04:24:11;;;;;;;1.57;1.27;;;11.80;90.80;;;;;;5072148;28;20536;-68
2022/05/28 04:26:37;;;;;;;1.37;1.27;;;11.90;91.10;;;;;;5073258;28;20461;-69
2022/05/28 04:29:04;;;;;;;1.40;1.30;;;11.90;91.00;;;;;;5069129;28;20245;-69
2022/05/28 04:31:29;;;;;;;1.87;1.43;;;11.90;91.00;;;;;;5074309;28;20472;-68
2022/05/28 04:33:55;;;;;;;1.20;1.10;;;11.90;91.00;;;;;;5080154;28;20457;-69
2022/05/28 04:36:21;;;;;;;6.07;1.27;;;12.00;91.00;;;;;;5074970;28;20229;-68
2022/05/28 04:38:47;;;;;;;1.80;1.23;;;12.00;91.00;;;;;;5072054;28;20266;-70
2022/05/28 04:41:13;;;;;;;4.63;1.37;;;11.90;91.00;;;;;;5071230;28;20484;-68
2022/05/28 04:43:39;;;;;;;1.43;0.93;;;11.90;91.10;;;;;;5070902;28;20515;-69
2022/05/28 04:46:05;;;;;;;3.40;1.93;;;11.80;91.30;;;;;;5073246;28;20464;-68
2022/05/28 04:48:31;;;;;;;5.53;1.50;;;11.80;91.40;;;;;;5072557;28;20215;-68
2022/05/28 04:50:57;;;;;;;4.40;1.97;;;11.80;91.40;;;;;;5071017;28;20740;-68
2022/05/28 04:53:22;;;;;;;1.90;1.37;;;11.80;91.60;;;;;;5073161;28;20453;-71
2022/05/28 04:55:48;;;;;;;3.83;1.50;;;11.80;91.60;;;;;;5069456;28;20211;-69
2022/05/28 04:58:15;;;;;;;3.43;1.50;;;11.80;91.60;;;;;;5074441;28;20219;-71
2022/05/28 05:00:42;;;;;;;5.17;2.20;;;11.80;91.70;;;;;;5076325;28;20210;-70
2022/05/28 05:03:08;;;;;;;2.57;1.43;;;11.80;91.80;;;;;;5080251;28;20462;-69
2022/05/28 05:05:34;;;;;;;4.73;1.47;;;11.80;91.80;;;;;;5054771;28;20532;-70
2022/05/28 05:08:00;;;;;;;2.50;1.30;;;11.80;91.80;;;;;;5071771;28;20230;-70
2022/05/28 05:10:25;;;;;;;6.03;1.50;;;11.80;91.90;;;;;;5065087;28;20344;-70
2022/05/28 05:12:51;;;;;;;3.07;1.50;;;11.80;92.10;;;;;;5070898;28;20491;-70
2022/05/28 05:15:17;;;;;;;1.63;1.40;;;11.70;92.10;;;;;;5071656;28;20294;-70
2022/05/28 05:17:42;;;;;;;4.80;1.50;;;11.70;92.30;;;;;;5071003;28;20247;-70
2022/05/28 05:20:11;;;;;;;4.23;1.20;;;11.70;92.50;;;;;;5070993;28;20715;-70
2022/05/28 05:22:37;;;;;;;3.23;1.60;;;11.70;92.50;;;;;;5061732;28;20246;-70
2022/05/28 05:25:03;;;;;;;2.10;1.37;;;11.80;92.50;;;;;;5071002;28;20547;-70
2022/05/28 05:27:29;;;;;;;4.80;1.60;;;11.80;92.60;;;;;;5075579;28;20459;-71
2022/05/28 05:29:59;;;;;;;2.20;1.07;;;11.80;92.70;;;;;;5072305;28;20532;-71
2022/05/28 05:32:25;;;;;;;3.30;1.60;;;11.80;92.80;;;;;;5070538;28;20295;-70
2022/05/28 05:34:51;;;;;;;2.07;1.40;;;11.80;92.80;;;;;;5076508;28;20449;-70
2022/05/28 05:37:17;;;;;;;2.43;1.33;;;11.90;92.90;;;;;;5073660;28;20457;-70
2022/05/28 05:39:43;;;;;;;5.00;2.00;;;11.90;93.00;;;;;;5070733;28;20223;-70
2022/05/28 05:42:10;;;;;;;2.57;1.40;;;11.90;93.00;;;;;;5067410;28;20508;-70
2022/05/28 05:44:37;;;;;;;4.77;1.57;;;11.80;93.00;;;;;;5066722;28;20226;-70
2022/05/28 05:47:04;;;;;;;6.13;1.50;;;11.80;93.10;;;;;;5069586;28;20459;-70
2022/05/28 05:49:30;;;;;;;3.20;1.60;;;11.90;93.20;;;;;;5053187;28;20530;-70
2022/05/28 05:51:55;;;;;;;4.83;1.70;;;11.90;93.20;;;;;;5069916;28;20934;-70
2022/05/28 05:54:24;;;;;;;1.80;1.60;;;11.90;93.30;;;;;;5080726;28;20207;-70
2022/05/28 05:56:49;;;;;;;3.97;1.37;;;11.90;93.40;;;;;;5080173;28;20674;-69
2022/05/28 05:59:15;;;;;;;5.27;1.80;;;11.90;93.50;;;;;;5080099;28;20475;-72
2022/05/28 06:01:41;;;;;;;3.67;1.50;;;12.00;93.80;;;;;;5066985;28;20239;-67
2022/05/28 06:04:07;;;;;;;3.33;1.30;;;12.00;93.70;;;;;;5071544;28;20457;-68
2022/05/28 06:06:33;;;;;;;10.33;1.57;;;12.00;93.70;;;;;;5070051;28;20590;-68
2022/05/28 06:08:58;;;;;;;4.20;1.23;;;12.10;93.80;;;;;;5070242;28;20258;-68
2022/05/28 06:11:25;;;;;;;3.63;1.17;;;12.10;93.80;;;;;;5095444;28;20222;-69
2022/05/28 06:13:51;;;;;;;3.00;1.37;;;12.20;93.70;;;;;;5073330;28;20231;-68
2022/05/28 06:16:17;;;;;;;3.53;1.10;;;12.20;93.90;;;;;;5069363;28;20568;-68
2022/05/28 06:18:44;;;;;;;4.03;1.10;;;12.20;94.10;;;;;;5069479;28;20227;-68
2022/05/28 06:21:10;;;;;;;3.97;1.60;;;12.30;94.00;;;;;;5063630;28;20466;-68
2022/05/28 06:23:36;;;;;;;3.47;1.47;;;12.30;94.00;;;;;;5075880;28;20476;-69
2022/05/28 06:26:05;;;;;;;1.60;1.20;;;12.30;93.90;;;;;;5050130;28;20462;-69
2022/05/28 06:28:31;;;;;;;1.50;1.33;;;12.40;93.90;;;;;;5069251;28;20454;-68
2022/05/28 06:31:01;;;;;;;5.27;1.47;;;12.50;94.00;;;;;;5045735;28;20445;-68
2022/05/28 06:33:27;;;;;;;1.73;1.30;;;12.60;94.40;;;;;;5064645;28;20462;-68
2022/05/28 06:36:00;;;;;;;3.83;1.33;;;12.60;94.20;;;;;;5049948;28;20465;-68
2022/05/28 06:38:26;;;;;;;6.13;2.03;;;12.60;94.20;;;;;;5045387;28;20690;-69
2022/05/28 06:40:53;;;;;;;2.30;1.60;;;12.70;94.30;;;;;;5074683;28;20798;-69
2022/05/28 06:43:18;;;;;;;7.90;1.70;;;12.70;94.30;;;;;;5071821;28;20464;-69
2022/05/28 06:45:44;;;;;;;2.50;1.50;;;12.70;94.40;;;;;;5070655;28;20462;-69
2022/05/28 06:48:10;;;;;;;3.13;1.60;;;12.80;94.40;;;;;;5067870;28;20223;-68
2022/05/28 06:53:21;;;;;;;2.90;1.40;;;12.90;94.40;;;;;;5069723;28;20836;-69
2022/05/28 06:55:47;;;;;;;2.27;1.33;;;13.00;94.50;;;;;;5068227;28;20441;-69
2022/05/28 06:58:14;;;;;;;3.33;1.50;;;13.10;94.60;;;;;;5069250;28;20237;-67
2022/05/28 07:00:40;;;;;;;4.13;1.60;;;13.10;94.60;;;;;;5070252;28;20841;-68
2022/05/28 07:03:06;;;;;;;1.73;1.00;;;13.20;94.70;;;;;;5051520;28;20458;-69
2022/05/28 07:05:32;;;;;;;1.83;1.50;;;13.30;94.70;;;;;;5071813;28;20584;-68
2022/05/28 07:07:58;;;;;;;2.33;2.00;;;13.40;94.70;;;;;;5069109;28;20457;-68
2022/05/28 07:10:23;;;;;;;2.73;1.27;;;13.50;94.80;;;;;;5069519;28;20938;-69
2022/05/28 07:12:50;;;;;;;6.50;1.73;;;13.60;94.70;;;;;;5057578;28;20691;-68
2022/05/28 07:15:16;;;;;;;3.03;1.40;;;13.60;94.80;;;;;;5089389;28;20228;-68
2022/05/28 07:17:42;;;;;;;2.43;2.23;;;13.70;94.80;;;;;;5069709;28;20454;-68
2022/05/28 07:20:09;;;;;;;5.63;1.93;;;13.80;95.00;;;;;;5071495;28;20213;-68
2022/05/28 07:22:35;;;;;;;3.93;1.47;;;13.90;95.00;;;;;;5055324;28;20464;-69
2022/05/28 07:25:01;;;;;;;1.73;1.50;;;14.00;95.10;;;;;;5069524;28;20445;-68
2022/05/28 07:27:27;;;;;;;3.67;1.90;;;14.10;95.00;;;;;;5069752;28;20544;-69
2022/05/28 07:29:54;;;;;;;3.20;1.30;;;14.20;94.20;;;;;;5070262;28;20529;-67
2022/05/28 07:32:22;;;;;;;1.40;1.13;;;14.20;93.60;;;;;;5072600;28;20218;-69
2022/05/28 07:34:48;;;;;;;3.53;1.50;;;14.40;94.00;;;;;;5067553;28;20469;-68
2022/05/28 07:37:14;;;;;;;2.53;1.20;;;14.50;93.70;;;;;;5068254;28;20485;-67
2022/05/28 07:39:39;;;;;;;2.30;1.40;;;14.50;93.20;;;;;;5058401;28;20249;-68
2022/05/28 07:42:05;;;;;;;3.33;1.37;;;14.50;93.50;;;;;;5060264;28;20215;-68
2022/05/28 07:44:31;;;;;;;2.10;1.00;;;14.60;93.30;;;;;;5047264;28;20588;-68
2022/05/28 07:46:57;;;;;;;1.63;1.43;;;14.60;92.90;;;;;;5068232;28;20438;-68
2022/05/28 07:49:23;;;;;;;1.83;1.00;;;14.70;93.20;;;;;;5063484;28;20266;-69
2022/05/28 07:51:48;;;;;;;2.33;2.03;;;14.70;92.80;;;;;;5051060;28;20457;-68
2022/05/28 07:54:16;;;;;;;2.00;1.70;;;14.80;92.90;;;;;;5068741;28;20231;-67
2022/05/28 07:56:42;;;;;;;1.70;1.23;;;14.80;92.90;;;;;;5061728;28;20255;-68
2022/05/28 07:59:07;;;;;;;4.57;1.60;;;14.90;93.00;;;;;;5061566;28;20498;-69
2022/05/28 08:01:36;;;;;;;1.70;1.20;;;15.00;92.90;;;;;;5065195;28;20450;-69
2022/05/28 08:04:02;;;;;;;2.33;1.30;;;15.10;93.00;;;;;;5068749;28;20237;-68
2022/05/28 08:06:32;;;;;;;2.90;1.30;;;15.10;92.30;;;;;;5067239;28;20457;-69
2022/05/28 08:08:58;;;;;;;2.30;1.30;;;15.20;92.40;;;;;;5069180;28;20214;-69
2022/05/28 08:11:24;;;;;;;1.70;1.20;;;15.20;92.40;;;;;;5048972;28;20471;-68
2022/05/28 08:13:52;;;;;;;2.10;1.37;;;15.30;91.90;;;;;;5067473;28;20458;-68
2022/05/28 08:16:17;;;;;;;3.93;1.60;;;15.30;91.80;;;;;;5066535;28;20480;-69
2022/05/28 08:18:43;;;;;;;3.93;1.50;;;15.40;91.70;;;;;;5072306;28;20975;-69
2022/05/28 08:23:54;;;;;;;1.40;1.30;;;15.50;91.90;;;;;;5067552;28;20237;-68
2022/05/28 08:26:20;;;;;;;2.03;1.27;;;15.50;91.20;;;;;;5062138;28;20445;-67
2022/05/28 08:28:47;;;;;;;4.83;1.30;;;15.50;91.20;;;;;;5066280;28;20574;-66
2022/05/28 08:31:13;;;;;;;1.83;1.57;;;15.50;91.00;;;;;;5060303;28;20458;-68
2022/05/28 08:33:39;;;;;;;2.60;1.23;;;15.50;90.90;;;;;;5059018;28;20470;-66
2022/05/28 08:36:05;;;;;;;3.23;2.93;;;15.60;90.60;;;;;;5076003;28;20281;-69
2022/05/28 08:38:31;;;;;;;12.43;1.40;;;15.70;90.50;;;;;;5054356;28;20278;-67
2022/05/28 08:41:20;;;;;;;2.70;1.17;;;15.70;90.40;;;;;;5053009;28;20454;-69
2022/05/28 08:43:54;;;;;;;2.87;1.20;;;15.80;90.50;;;;;;5066222;28;20298;-66
2022/05/28 08:46:23;;;;;;;1.00;0.90;;;15.90;90.60;;;;;;5053757;28;20541;-67
2022/05/28 08:48:54;;;;;;;1.50;1.40;;;16.00;90.80;;;;;;5066738;28;20908;-68
2022/05/28 08:51:44;;;;;;;2.67;1.03;;;16.10;90.20;;;;;;5063426;28;21015;-66
2022/05/28 08:54:16;;;;;;;0.90;0.90;;;16.20;90.40;;;;;;5064565;28;20481;-68
2022/05/28 08:56:43;;;;;;;3.70;1.53;;;16.20;90.20;;;;;;5084174;28;20453;-67
2022/05/28 08:59:17;;;;;;;2.93;1.37;;;16.30;90.10;;;;;;5071534;28;20814;-68
2022/05/28 09:01:46;;;;;;;2.30;1.37;;;16.30;90.10;;;;;;5069534;28;20496;-66
2022/05/28 09:04:20;;;;;;;2.90;1.20;;;16.30;90.10;;;;;;5079545;28;20471;-69
2022/05/28 09:06:53;;;;;;;0.97;0.97;;;16.40;89.90;;;;;;5067482;28;20598;-67
2022/05/28 09:09:26;;;;;;;1.90;1.80;;;16.50;90.40;;;;;;5053711;28;20445;-66
2022/05/28 09:11:56;;;;;;;4.73;1.47;;;16.60;90.80;;;;;;5057439;28;20453;-68
2022/05/28 09:14:31;;;;;;;1.70;1.17;;;16.80;90.70;;;;;;5070950;28;20463;-68
2022/05/28 09:17:02;;;;;;;3.50;1.40;;;16.90;90.70;;;;;;5080495;28;20461;-68
2022/05/28 09:19:33;;;;;;;2.13;1.43;;;17.00;90.40;;;;;;5065053;28;20543;-69
2022/05/28 09:21:58;;;;;;;4.70;1.40;;;17.00;90.10;;;;;;5068589;28;20981;-69
2022/05/28 09:24:27;;;;;;;3.93;1.90;;;17.10;90.30;;;;;;5065224;28;20473;-68
2022/05/28 09:26:58;;;;;;;3.67;1.17;;;17.00;88.60;;;;;;5059432;28;20219;-67
2022/05/28 09:29:37;;;;;;;2.00;1.03;;;16.90;87.70;;;;;;5070545;28;20457;-68
2022/05/28 09:32:30;;;;;;;1.90;0.90;;;16.90;89.20;;;;;;5052963;28;20464;-68
2022/05/28 09:34:58;;;;;;;1.50;1.40;;;17.00;88.50;;;;;;5071562;28;20511;-69
2022/05/28 09:37:56;;;;;;;11.23;1.77;;;17.20;89.10;;;;;;5063866;28;20518;-69
2022/05/28 09:40:50;;;;;;;2.30;1.17;;;17.30;88.60;;;;;;5063450;28;20520;-68
2022/05/28 09:43:46;;;;;;;3.23;1.20;;;17.30;88.20;;;;;;5079855;28;20446;-69
2022/05/28 09:46:27;;;;;;;1.30;1.20;;;17.20;87.60;;;;;;5066343;28;20985;-68
2022/05/28 09:48:59;;;;;;;3.83;1.50;;;17.30;88.20;;;;;;5066297;28;20516;-71
2022/05/28 09:51:27;;;;;;;1.93;1.30;;;17.30;87.70;;;;;;5063213;28;20547;-68
2022/05/28 09:54:16;;;;;;;1.40;1.03;;;17.20;87.70;;;;;;5069669;28;20454;-67
2022/05/28 09:56:46;;;;;;;2.03;0.90;;;17.40;88.00;;;;;;5076809;28;20446;-69
2022/05/28 09:59:44;;;;;;;1.43;1.27;;;17.30;86.80;;;;;;5069986;28;21000;-68
2022/05/28 10:02:20;;;;;;;3.17;1.60;;;17.50;88.50;;;;;;5050366;28;20462;-69
2022/05/28 10:05:13;;;;;;;5.00;1.70;;;17.70;88.40;;;;;;5077056;28;20977;-68
2022/05/28 10:07:45;;;;;;;8.87;2.27;;;17.70;88.70;;;;;;5062928;28;20981;-70
2022/05/28 10:10:20;;;;;;;3.10;1.53;;;17.70;87.10;;;;;;5066430;28;20458;-68
2022/05/28 10:12:46;;;;;;;1.23;1.00;;;17.90;87.40;;;;;;5070043;28;20469;-70
2022/05/28 10:15:14;;;;;;;1.30;1.20;;;18.00;87.30;;;;;;5069780;28;20457;-69
2022/05/28 10:17:51;;;;;;;2.77;1.33;;;18.10;86.10;;;;;;5058537;28;20703;-68
2022/05/28 10:20:19;;;;;;;2.50;1.77;;;18.20;86.00;;;;;;5050969;28;20450;-68
2022/05/28 10:22:48;;;;;;;1.10;0.80;;;18.40;85.00;;;;;;5068888;28;20545;-69
2022/05/28 10:25:33;;;;;;;3.00;1.20;;;18.60;84.70;;;;;;5080399;28;21013;-68
2022/05/28 10:27:59;;;;;;;1.17;1.07;;;18.70;84.70;;;;;;5068709;28;20469;-67
2022/05/28 10:30:42;;;;;;;0.93;0.90;;;18.60;84.50;;;;;;5067922;28;20542;-70
2022/05/28 10:33:21;;;;;;;1.00;0.90;;;18.80;86.30;;;;;;5073805;28;20376;-68
2022/05/28 10:35:47;;;;;;;1.87;1.30;;;18.80;83.70;;;;;;5051579;28;20453;-68
2022/05/28 10:38:13;;;;;;;2.57;1.33;;;18.50;82.40;;;;;;5051565;28;20478;-67
2022/05/28 10:40:50;;;;;;;3.00;1.27;;;18.40;83.70;;;;;;5073011;28;20526;-67
2022/05/28 10:43:22;;;;;;;2.70;1.30;;;18.70;83.50;;;;;;5070349;28;20210;-69
2022/05/28 10:46:03;;;;;;;1.20;1.10;;;18.80;83.50;;;;;;5068999;28;20448;-67
2022/05/28 10:48:48;;;;;;;1.40;1.30;;;18.80;82.70;;;;;;5074565;28;20449;-69
2022/05/28 10:51:55;;;;;;;2.67;1.67;;;18.80;81.90;;;;;;5069867;28;20840;-69
2022/05/28 10:54:49;;;;;;;1.30;1.20;;;18.90;82.70;;;;;;5051183;28;21016;-69
2022/05/28 10:57:33;;;;;;;1.03;0.90;;;19.00;82.70;;;;;;5062943;28;20453;-68
2022/05/28 11:00:08;;;;;;;0.90;0.90;;;19.10;82.30;;;;;;5067680;28;20993;-69
2022/05/28 11:02:41;;;;;;;1.73;1.20;;;19.10;81.90;;;;;;5065106;28;20472;-69
2022/05/28 11:05:25;;;;;;;1.00;0.93;;;19.10;82.50;;;;;;5063099;28;20860;-69
2022/05/28 11:08:17;;;;;;;2.10;1.10;;;19.30;84.20;;;;;;5063300;28;20445;-69
2022/05/28 11:10:51;;;;;;;1.20;1.10;;;19.40;83.00;;;;;;5060360;28;20533;-69
2022/05/28 11:13:33;;;;;;;1.80;1.10;;;19.40;80.70;;;;;;5049738;28;20530;-68
2022/05/28 11:16:20;;;;;;;1.13;1.07;;;19.40;81.20;;;;;;5064788;28;20977;-69
2022/05/28 11:19:06;;;;;;;1.27;1.10;;;19.30;80.30;;;;;;5066778;28;20496;-69
2022/05/28 11:22:09;;;;;;;1.80;1.17;;;19.30;81.40;;;;;;5067524;28;20454;-69
2022/05/28 11:24:45;;;;;;;1.03;0.80;;;19.40;81.30;;;;;;5064658;28;20524;-69
2022/05/28 11:27:36;;;;;;;1.10;1.10;;;19.40;76.00;;;;;;5065112;28;20457;-70
2022/05/28 11:30:06;;;;;;;2.20;1.00;;;19.40;75.80;;;;;;5075190;28;20445;-66
2022/05/28 11:32:52;;;;;;;1.00;0.90;;;19.50;72.70;;;;;;5068323;28;20449;-67
2022/05/28 11:35:32;;;;;;;0.80;0.70;;;19.40;74.80;;;;;;5085623;28;20459;-66
2022/05/28 11:38:07;;;;;;;1.50;0.90;;;19.60;74.30;;;;;;5086895;28;20555;-69
2022/05/28 11:40:47;;;;;;;1.70;1.10;;;19.80;74.80;;;;;;5068996;28;20457;-69
2022/05/28 11:43:24;;;;;;;0.80;0.80;;;20.00;75.00;;;;;;5084923;28;20493;-68
2022/05/28 11:46:16;;;;;;;3.47;0.80;;;20.00;74.40;;;;;;5065418;28;20442;-69
2022/05/28 11:51:39;;;;;;;2.30;1.20;;;20.40;74.00;;;;;;5066218;28;20516;-70
2022/05/28 11:54:13;;;;;;;1.80;1.27;;;19.90;73.80;;;;;;5064530;28;20458;-68
2022/05/28 11:56:39;;;;;;;1.30;1.20;;;19.50;73.90;;;;;;5064548;28;21047;-68
2022/05/28 11:59:11;;;;;;;1.30;1.20;;;19.40;73.70;;;;;;5075745;28;20500;-69
2022/05/28 12:02:02;;;;;;;1.07;1.07;;;19.20;71.10;;;;;;5070486;28;20233;-68
2022/05/28 12:04:30;;;;;;;1.00;0.90;;;19.20;70.70;;;;;;5067268;28;21015;-68
2022/05/28 12:07:21;;;;;;;1.00;1.00;;;19.10;69.80;;;;;;5072562;28;20460;-69
2022/05/28 12:09:46;;;;;;;0.97;0.87;;;19.10;70.30;;;;;;5055759;28;20502;-68
2022/05/28 12:12:17;;;;;;;1.00;1.00;;;19.30;70.70;;;;;;5067094;28;20525;-69
2022/05/28 12:14:47;;;;;;;1.13;1.10;;;19.30;69.60;;;;;;5060934;28;20224;-68
2022/05/28 12:17:19;;;;;;;1.43;1.20;;;19.40;70.10;;;;;;5054432;28;20457;-68
2022/05/28 12:19:50;;;;;;;1.40;1.30;;;19.50;70.40;;;;;;5056542;28;21238;-69
2022/05/28 12:22:22;;;;;;;2.00;1.30;;;19.30;70.10;;;;;;5053658;28;20470;-68
2022/05/28 12:25:16;;;;;;;1.30;1.20;;;19.30;71.20;;;;;;5068536;28;20449;-71
2022/05/28 12:28:08;;;;;;;1.27;1.17;;;19.70;72.50;;;;;;5062136;28;20519;-69
2022/05/28 12:30:42;;;;;;;2.43;0.83;;;19.70;70.30;;;;;;5067308;28;21044;-68
2022/05/28 12:33:32;;;;;;;1.23;1.00;;;19.70;70.10;;;;;;5072165;28;20461;-68
2022/05/28 12:36:01;;;;;;;0.87;0.77;;;19.70;70.60;;;;;;5086955;28;20511;-69
2022/05/28 12:38:38;;;;;;;1.33;1.20;;;19.70;70.70;;;;;;5073141;28;20492;-69
2022/05/28 12:41:04;;;;;;;1.47;1.00;;;19.70;70.70;;;;;;5057912;28;20521;-68
2022/05/28 12:43:34;;;;;;;2.30;1.20;;;19.80;70.00;;;;;;5060482;28;20884;-68
2022/05/28 12:46:15;;;;;;;1.13;1.10;;;19.60;70.10;;;;;;5073356;28;20218;-69
2022/05/28 12:48:42;;;;;;;1.53;1.43;;;19.50;69.40;;;;;;5072543;28;20449;-68
2022/05/28 12:51:32;;;;;;;0.90;0.90;;;19.50;70.20;;;;;;5064653;28;21100;-69
2022/05/28 12:54:04;;;;;;;1.20;1.10;;;19.50;70.70;;;;;;5052527;28;20508;-67
2022/05/28 12:56:36;;;;;;;1.47;1.10;;;19.40;68.60;;;;;;5077186;28;20444;-68
2022/05/28 12:59:13;;;;;;;1.20;1.07;;;19.20;67.60;;;;;;5065741;28;20461;-68
2022/05/28 13:01:55;;;;;;;0.93;0.83;;;19.40;66.00;;;;;;5082099;28;20965;-68
2022/05/28 13:04:21;;;;;;;1.13;0.70;;;19.40;65.90;;;;;;5071453;28;20465;-69
2022/05/28 13:06:51;;;;;;;0.80;0.70;;;19.50;68.00;;;;;;5067729;28;20519;-69
2022/05/28 13:09:24;;;;;;;1.23;1.00;;;19.70;67.50;;;;;;5051422;28;20505;-68
2022/05/28 13:12:23;;;;;;;1.17;0.77;;;19.50;66.80;;;;;;5063123;28;20457;-69
2022/05/28 13:15:21;;;;;;;3.37;1.30;;;19.70;68.70;;;;;;5050785;28;20803;-68